createdAt,value
2023-04-30T00:00:14.904Z,947.4
2023-04-30T00:01:16.794Z,947.4
2023-04-30T00:02:18.861Z,947.4
2023-04-30T00:03:21.110Z,947.4
2023-04-30T00:04:23.409Z,947.4
2023-04-30T00:05:25.388Z,947.4
2023-04-30T00:06:28.992Z,947.4
2023-04-30T00:07:31.033Z,947.5
2023-04-30T00:08:32.990Z,947.4
2023-04-30T00:09:34.878Z,947.4
2023-04-30T00:10:36.693Z,947.4
2023-04-30T00:11:38.550Z,947.4
2023-04-30T00:12:40.400Z,947.5
2023-04-30T00:13:42.378Z,947.4
2023-04-30T00:14:44.164Z,947.4
2023-04-30T00:15:45.836Z,947.5
2023-04-30T00:16:47.895Z,947.4
2023-04-30T00:17:50.003Z,947.4
2023-04-30T00:18:51.907Z,947.4
2023-04-30T00:19:54.296Z,947.4
2023-04-30T00:20:56.456Z,947.4
2023-04-30T00:21:58.274Z,947.4
2023-04-30T00:23:00.139Z,947.4
2023-04-30T00:24:02.092Z,947.4
2023-04-30T00:25:03.927Z,947.4
2023-04-30T00:26:05.774Z,947.4
2023-04-30T00:27:07.633Z,947.4
2023-04-30T00:28:09.482Z,947.4
2023-04-30T00:29:11.429Z,947.4
2023-04-30T00:30:13.390Z,947.4
2023-04-30T00:31:15.221Z,947.4
2023-04-30T00:32:17.221Z,947.4
2023-04-30T00:33:19.234Z,947.4
2023-04-30T00:34:21.084Z,947.4
2023-04-30T00:35:23.040Z,947.4
2023-04-30T00:36:24.887Z,947.4
2023-04-30T00:37:26.741Z,947.4
2023-04-30T00:38:28.587Z,947.4
2023-04-30T00:39:30.330Z,947.4
2023-04-30T00:40:32.218Z,947.4
2023-04-30T00:41:34.139Z,947.4
2023-04-30T00:42:36.099Z,947.4
2023-04-30T00:43:38.049Z,947.4
2023-04-30T00:44:39.890Z,947.4
2023-04-30T00:45:41.937Z,947.3
2023-04-30T00:46:43.796Z,947.4
2023-04-30T00:47:45.875Z,947.4
2023-04-30T00:48:47.828Z,947.4
2023-04-30T00:49:49.648Z,947.3
2023-04-30T00:50:51.512Z,947.4
2023-04-30T00:51:53.452Z,947.3
2023-04-30T00:52:55.528Z,947.3
2023-04-30T00:53:57.270Z,947.3
2023-04-30T00:54:58.952Z,947.3
2023-04-30T00:56:00.595Z,947.3
2023-04-30T00:57:02.206Z,947.3
2023-04-30T00:58:04.046Z,947.4
2023-04-30T00:59:05.942Z,947.4
2023-04-30T01:00:07.540Z,947.4
2023-04-30T01:01:09.292Z,947.4
2023-04-30T01:02:11.151Z,947.3
2023-04-30T01:03:13.311Z,947.4
2023-04-30T01:04:15.203Z,947.4
2023-04-30T01:05:16.833Z,947.4
2023-04-30T01:06:18.541Z,947.4
2023-04-30T01:07:20.240Z,947.4
2023-04-30T01:08:21.880Z,947.4
2023-04-30T01:09:23.505Z,947.4
2023-04-30T01:10:25.187Z,947.4
2023-04-30T01:11:26.879Z,947.3
2023-04-30T01:12:28.519Z,947.3
2023-04-30T01:13:30.130Z,947.3
2023-04-30T01:14:34.539Z,947.3
2023-04-30T01:15:36.192Z,947.3
2023-04-30T01:16:40.693Z,947.3
2023-04-30T01:17:42.375Z,947.3
2023-04-30T01:18:44.393Z,947.4
2023-04-30T01:19:46.251Z,947.4
2023-04-30T01:20:47.820Z,947.3
2023-04-30T01:21:49.437Z,947.4
2023-04-30T01:22:51.093Z,947.3
2023-04-30T01:23:52.795Z,947.4
2023-04-30T01:24:54.395Z,947.4
2023-04-30T01:25:56.146Z,947.4
2023-04-30T01:26:57.737Z,947.4
2023-04-30T01:27:59.410Z,947.4
2023-04-30T01:29:00.982Z,947.4
2023-04-30T01:30:02.706Z,947.4
2023-04-30T01:31:04.394Z,947.4
2023-04-30T01:32:06.069Z,947.4
2023-04-30T01:33:08.117Z,947.4
2023-04-30T01:34:09.886Z,947.4
2023-04-30T01:35:11.512Z,947.4
2023-04-30T01:36:13.146Z,947.4
2023-04-30T01:37:14.815Z,947.4
2023-04-30T01:38:16.403Z,947.4
2023-04-30T01:39:18.057Z,947.4
2023-04-30T01:40:19.642Z,947.4
2023-04-30T01:41:21.277Z,947.4
2023-04-30T01:42:22.924Z,947.4
2023-04-30T01:43:24.590Z,947.4
2023-04-30T01:44:26.182Z,947.4
2023-04-30T01:45:27.854Z,947.4
2023-04-30T01:46:29.668Z,947.4
2023-04-30T01:47:31.432Z,947.4
2023-04-30T01:48:33.220Z,947.4
2023-04-30T01:49:34.834Z,947.4
2023-04-30T01:50:36.457Z,947.4
2023-04-30T01:51:38.110Z,947.4
2023-04-30T01:52:39.755Z,947.3
2023-04-30T01:53:41.436Z,947.4
2023-04-30T01:54:43.083Z,947.4
2023-04-30T01:55:44.697Z,947.4
2023-04-30T01:56:46.372Z,947.4
2023-04-30T01:57:47.997Z,947.4
2023-04-30T01:58:49.654Z,947.4
2023-04-30T01:59:51.379Z,947.3
2023-04-30T02:00:53.066Z,947.3
2023-04-30T02:01:54.847Z,947.3
2023-04-30T02:02:57.171Z,947.3
2023-04-30T02:03:59.298Z,947.3
2023-04-30T02:05:01.051Z,947.3
2023-04-30T02:06:02.764Z,947.3
2023-04-30T02:07:04.426Z,947.3
2023-04-30T02:08:06.165Z,947.3
2023-04-30T02:09:07.775Z,947.4
2023-04-30T02:10:09.550Z,947.4
2023-04-30T02:11:11.205Z,947.3
2023-04-30T02:12:12.948Z,947.3
2023-04-30T02:13:14.629Z,947.4
2023-04-30T02:14:16.205Z,947.3
2023-04-30T02:15:17.814Z,947.3
2023-04-30T02:16:19.566Z,947.3
2023-04-30T02:17:21.223Z,947.3
2023-04-30T02:18:23.160Z,947.3
2023-04-30T02:19:24.975Z,947.3
2023-04-30T02:20:26.616Z,947.3
2023-04-30T02:21:28.205Z,947.4
2023-04-30T02:22:29.781Z,947.3
2023-04-30T02:23:31.595Z,947.4
2023-04-30T02:24:33.253Z,947.3
2023-04-30T02:25:34.856Z,947.3
2023-04-30T02:26:36.463Z,947.3
2023-04-30T02:27:38.081Z,947.3
2023-04-30T02:28:39.744Z,947.3
2023-04-30T02:29:41.777Z,947.3
2023-04-30T02:30:43.467Z,947.3
2023-04-30T02:31:45.159Z,947.3
2023-04-30T02:32:47.072Z,947.3
2023-04-30T02:33:48.737Z,947.4
2023-04-30T02:34:50.366Z,947.4
2023-04-30T02:35:52.110Z,947.3
2023-04-30T02:36:53.736Z,947.3
2023-04-30T02:37:55.320Z,947.3
2023-04-30T02:38:56.956Z,947.3
2023-04-30T02:39:58.630Z,947.3
2023-04-30T02:41:00.339Z,947.3
2023-04-30T02:42:02.024Z,947.3
2023-04-30T02:43:03.660Z,947.4
2023-04-30T02:44:05.289Z,947.3
2023-04-30T02:45:06.942Z,947.3
2023-04-30T02:46:08.720Z,947.4
2023-04-30T02:47:10.384Z,947.4
2023-04-30T02:48:11.954Z,947.3
2023-04-30T02:49:13.538Z,947.4
2023-04-30T02:50:15.124Z,947.4
2023-04-30T02:51:16.819Z,947.4
2023-04-30T02:52:18.412Z,947.3
2023-04-30T02:53:20.005Z,947.4
2023-04-30T02:54:21.593Z,947.4
2023-04-30T02:55:23.217Z,947.4
2023-04-30T02:56:24.949Z,947.4
2023-04-30T02:57:26.589Z,947.4
2023-04-30T02:58:28.391Z,947.4
2023-04-30T02:59:30.083Z,947.4
2023-04-30T03:00:31.731Z,947.5
2023-04-30T03:01:33.525Z,947.5
2023-04-30T03:02:35.510Z,947.5
2023-04-30T03:03:37.490Z,947.5
2023-04-30T03:04:39.240Z,947.5
2023-04-30T03:05:40.880Z,947.5
2023-04-30T03:06:42.774Z,947.5
2023-04-30T03:07:44.658Z,947.5
2023-04-30T03:08:46.264Z,947.5
2023-04-30T03:09:47.980Z,947.5
2023-04-30T03:10:49.634Z,947.6
2023-04-30T03:11:51.505Z,947.5
2023-04-30T03:12:53.124Z,947.5
2023-04-30T03:13:54.760Z,947.5
2023-04-30T03:14:56.340Z,947.5
2023-04-30T03:15:58.271Z,947.5
2023-04-30T03:16:59.950Z,947.5
2023-04-30T03:18:01.714Z,947.6
2023-04-30T03:19:03.409Z,947.6
2023-04-30T03:20:05.080Z,947.6
2023-04-30T03:21:06.726Z,947.6
2023-04-30T03:22:08.363Z,947.5
2023-04-30T03:23:10.016Z,947.6
2023-04-30T03:24:11.621Z,947.6
2023-04-30T03:25:13.202Z,947.6
2023-04-30T03:26:14.777Z,947.6
2023-04-30T03:27:16.528Z,947.6
2023-04-30T03:28:18.620Z,947.6
2023-04-30T03:29:20.260Z,947.6
2023-04-30T03:30:21.909Z,947.6
2023-04-30T03:31:23.648Z,947.6
2023-04-30T03:32:25.569Z,947.6
2023-04-30T03:33:27.346Z,947.6
2023-04-30T03:34:29.024Z,947.6
2023-04-30T03:35:30.620Z,947.6
2023-04-30T03:36:32.203Z,947.6
2023-04-30T03:37:33.919Z,947.6
2023-04-30T03:38:35.566Z,947.6
2023-04-30T03:39:37.153Z,947.6
2023-04-30T03:40:38.742Z,947.7
2023-04-30T03:41:40.320Z,947.7
2023-04-30T03:42:42.017Z,947.7
2023-04-30T03:43:43.709Z,947.7
2023-04-30T03:44:45.387Z,947.7
2023-04-30T03:45:47.101Z,947.7
2023-04-30T03:46:48.719Z,947.7
2023-04-30T03:47:50.494Z,947.7
2023-04-30T03:48:52.166Z,947.8
2023-04-30T03:49:54.935Z,947.7
2023-04-30T03:50:57.762Z,947.8
2023-04-30T03:51:59.398Z,947.8
2023-04-30T03:53:01.146Z,947.8
2023-04-30T03:54:02.867Z,947.8
2023-04-30T03:55:04.466Z,947.8
2023-04-30T03:56:06.160Z,947.8
2023-04-30T03:57:07.934Z,947.8
2023-04-30T03:58:09.641Z,947.8
2023-04-30T03:59:11.262Z,947.8
2023-04-30T04:00:12.946Z,947.8
2023-04-30T04:01:14.597Z,947.8
2023-04-30T04:02:16.334Z,947.8
2023-04-30T04:03:18.271Z,947.8
2023-04-30T04:04:20.139Z,947.8
2023-04-30T04:05:21.808Z,947.8
2023-04-30T04:06:23.833Z,947.8
2023-04-30T04:07:25.569Z,947.8
2023-04-30T04:08:27.252Z,947.8
2023-04-30T04:09:28.863Z,947.8
2023-04-30T04:10:33.363Z,947.8
2023-04-30T04:11:35.065Z,947.8
2023-04-30T04:12:36.690Z,947.8
2023-04-30T04:13:38.358Z,947.8
2023-04-30T04:14:39.965Z,947.9
2023-04-30T04:15:41.763Z,947.9
2023-04-30T04:16:43.823Z,947.9
2023-04-30T04:17:45.601Z,947.8
2023-04-30T04:18:47.372Z,947.9
2023-04-30T04:19:48.972Z,947.9
2023-04-30T04:20:50.593Z,947.9
2023-04-30T04:21:52.199Z,947.9
2023-04-30T04:22:53.872Z,947.9
2023-04-30T04:23:55.490Z,947.9
2023-04-30T04:24:57.083Z,947.9
2023-04-30T04:25:58.670Z,947.9
2023-04-30T04:27:00.285Z,947.9
2023-04-30T04:28:01.987Z,947.9
2023-04-30T04:29:03.644Z,948
2023-04-30T04:30:05.328Z,948
2023-04-30T04:31:07.078Z,948
2023-04-30T04:32:08.777Z,948
2023-04-30T04:33:10.339Z,948
2023-04-30T04:34:11.986Z,948
2023-04-30T04:35:13.573Z,948
2023-04-30T04:36:15.154Z,948
2023-04-30T04:37:16.849Z,948
2023-04-30T04:38:18.443Z,948
2023-04-30T04:39:20.140Z,948
2023-04-30T04:40:21.743Z,948.1
2023-04-30T04:41:23.331Z,948
2023-04-30T04:42:24.957Z,948.1
2023-04-30T04:43:26.602Z,948.1
2023-04-30T04:44:28.200Z,948.1
2023-04-30T04:45:29.793Z,948.1
2023-04-30T04:46:32.029Z,948.1
2023-04-30T04:47:34.484Z,948.1
2023-04-30T04:48:36.216Z,948.1
2023-04-30T04:49:37.865Z,948.1
2023-04-30T04:50:39.506Z,948.1
2023-04-30T04:51:41.179Z,948.2
2023-04-30T04:52:42.769Z,948.2
2023-04-30T04:53:44.317Z,948.2
2023-04-30T04:54:46.055Z,948.2
2023-04-30T04:55:47.676Z,948.2
2023-04-30T04:56:49.233Z,948.2
2023-04-30T04:57:50.839Z,948.2
2023-04-30T04:58:52.466Z,948.2
2023-04-30T04:59:55.029Z,948.2
2023-04-30T05:00:57.396Z,948.2
2023-04-30T05:01:59.159Z,948.2
2023-04-30T05:03:01.483Z,948.2
2023-04-30T05:04:03.496Z,948.2
2023-04-30T05:05:05.519Z,948.2
2023-04-30T05:06:07.366Z,948.2
2023-04-30T05:07:09.114Z,948.2
2023-04-30T05:08:10.736Z,948.3
2023-04-30T05:09:12.337Z,948.2
2023-04-30T05:10:14.059Z,948.3
2023-04-30T05:11:16.251Z,948.2
2023-04-30T05:12:17.873Z,948.2
2023-04-30T05:13:19.441Z,948.2
2023-04-30T05:14:21.023Z,948.2
2023-04-30T05:15:22.721Z,948.3
2023-04-30T05:16:24.678Z,948.3
2023-04-30T05:17:26.730Z,948.3
2023-04-30T05:18:28.507Z,948.2
2023-04-30T05:19:30.141Z,948.2
2023-04-30T05:20:31.804Z,948.2
2023-04-30T05:21:33.427Z,948.2
2023-04-30T05:22:35.111Z,948.2
2023-04-30T05:23:36.740Z,948.2
2023-04-30T05:24:38.368Z,948.2
2023-04-30T05:25:40.117Z,948.2
2023-04-30T05:26:41.927Z,948.2
2023-04-30T05:27:43.576Z,948.2
2023-04-30T05:28:45.169Z,948.2
2023-04-30T05:29:46.828Z,948.2
2023-04-30T05:30:48.473Z,948.2
2023-04-30T05:31:50.185Z,948.1
2023-04-30T05:32:52.217Z,948.2
2023-04-30T05:33:54.656Z,948.2
2023-04-30T05:34:56.229Z,948.2
2023-04-30T05:35:57.842Z,948.2
2023-04-30T05:36:59.421Z,948.2
2023-04-30T05:38:00.994Z,948.2
2023-04-30T05:39:02.596Z,948.2
2023-04-30T05:40:04.248Z,948.3
2023-04-30T05:41:05.907Z,948.2
2023-04-30T05:42:07.528Z,948.2
2023-04-30T05:43:09.170Z,948.3
2023-04-30T05:44:10.807Z,948.3
2023-04-30T05:45:12.529Z,948.3
2023-04-30T05:46:14.303Z,948.2
2023-04-30T05:47:16.063Z,948.2
2023-04-30T05:48:17.904Z,948.3
2023-04-30T05:49:19.651Z,948.2
2023-04-30T05:50:21.285Z,948.2
2023-04-30T05:51:22.960Z,948.2
2023-04-30T05:52:24.614Z,948.2
2023-04-30T05:53:26.207Z,948.2
2023-04-30T05:54:27.826Z,948.2
2023-04-30T05:55:29.446Z,948.2
2023-04-30T05:56:31.115Z,948.2
2023-04-30T05:57:32.748Z,948.2
2023-04-30T05:58:34.394Z,948.2
2023-04-30T05:59:35.973Z,948.2
2023-04-30T06:00:37.648Z,948.2
2023-04-30T06:01:39.621Z,948.2
2023-04-30T06:02:41.693Z,948.2
2023-04-30T06:03:43.508Z,948.2
2023-04-30T06:04:47.926Z,948.3
2023-04-30T06:05:50.044Z,948.2
2023-04-30T06:06:52.034Z,948.3
2023-04-30T06:07:53.864Z,948.3
2023-04-30T06:08:55.469Z,948.3
2023-04-30T06:09:57.540Z,948.3
2023-04-30T06:10:59.215Z,948.3
2023-04-30T06:12:00.950Z,948.4
2023-04-30T06:13:02.601Z,948.3
2023-04-30T06:14:04.207Z,948.3
2023-04-30T06:15:05.795Z,948.3
2023-04-30T06:16:07.590Z,948.3
2023-04-30T06:17:09.313Z,948.3
2023-04-30T06:18:10.978Z,948.3
2023-04-30T06:19:12.623Z,948.3
2023-04-30T06:20:14.219Z,948.3
2023-04-30T06:21:15.828Z,948.3
2023-04-30T06:22:17.513Z,948.3
2023-04-30T06:23:19.176Z,948.4
2023-04-30T06:24:20.760Z,948.4
2023-04-30T06:25:25.253Z,948.4
2023-04-30T06:26:26.849Z,948.4
2023-04-30T06:27:28.490Z,948.4
2023-04-30T06:28:30.275Z,948.4
2023-04-30T06:29:32.021Z,948.4
2023-04-30T06:30:33.631Z,948.4
2023-04-30T06:31:35.401Z,948.4
2023-04-30T06:32:37.139Z,948.4
2023-04-30T06:33:38.861Z,948.4
2023-04-30T06:34:40.486Z,948.4
2023-04-30T06:35:42.134Z,948.4
2023-04-30T06:36:43.773Z,948.4
2023-04-30T06:37:45.510Z,948.4
2023-04-30T06:38:47.133Z,948.4
2023-04-30T06:39:48.766Z,948.4
2023-04-30T06:40:50.434Z,948.4
2023-04-30T06:41:52.017Z,948.4
2023-04-30T06:42:53.793Z,948.4
2023-04-30T06:43:55.460Z,948.4
2023-04-30T06:44:57.051Z,948.4
2023-04-30T06:45:59.099Z,948.4
2023-04-30T06:47:00.956Z,948.4
2023-04-30T06:48:02.710Z,948.4
2023-04-30T06:49:04.482Z,948.4
2023-04-30T06:50:06.152Z,948.4
2023-04-30T06:51:11.181Z,948.5
2023-04-30T06:52:12.797Z,948.5
2023-04-30T06:53:14.586Z,948.5
2023-04-30T06:54:16.182Z,948.5
2023-04-30T06:55:17.863Z,948.5
2023-04-30T06:56:19.472Z,948.5
2023-04-30T06:57:21.085Z,948.5
2023-04-30T06:58:22.828Z,948.5
2023-04-30T06:59:24.500Z,948.5
2023-04-30T07:00:26.229Z,948.5
2023-04-30T07:01:28.052Z,948.5
2023-04-30T07:02:29.987Z,948.4
2023-04-30T07:03:32.166Z,948.5
2023-04-30T07:04:33.935Z,948.5
2023-04-30T07:05:35.652Z,948.4
2023-04-30T07:06:37.652Z,948.5
2023-04-30T07:07:39.643Z,948.5
2023-04-30T07:08:41.364Z,948.5
2023-04-30T07:09:43.052Z,948.4
2023-04-30T07:10:44.767Z,948.4
2023-04-30T07:11:46.413Z,948.5
2023-04-30T07:12:48.005Z,948.5
2023-04-30T07:13:49.651Z,948.5
2023-04-30T07:14:51.290Z,948.5
2023-04-30T07:15:53.071Z,948.5
2023-04-30T07:16:54.837Z,948.5
2023-04-30T07:17:56.637Z,948.5
2023-04-30T07:18:58.332Z,948.5
2023-04-30T07:19:59.953Z,948.5
2023-04-30T07:21:01.726Z,948.5
2023-04-30T07:22:03.460Z,948.5
2023-04-30T07:23:05.088Z,948.5
2023-04-30T07:24:06.703Z,948.5
2023-04-30T07:25:08.347Z,948.5
2023-04-30T07:26:09.984Z,948.5
2023-04-30T07:27:11.671Z,948.5
2023-04-30T07:28:13.371Z,948.5
2023-04-30T07:29:15.043Z,948.5
2023-04-30T07:30:16.692Z,948.5
2023-04-30T07:31:18.451Z,948.5
2023-04-30T07:32:20.195Z,948.5
2023-04-30T07:33:21.823Z,948.5
2023-04-30T07:34:23.551Z,948.5
2023-04-30T07:35:25.177Z,948.5
2023-04-30T07:36:26.786Z,948.5
2023-04-30T07:37:28.458Z,948.5
2023-04-30T07:38:30.065Z,948.6
2023-04-30T07:39:31.675Z,948.5
2023-04-30T07:40:37.031Z,948.5
2023-04-30T07:41:38.762Z,948.5
2023-04-30T07:42:40.442Z,948.5
2023-04-30T07:43:42.061Z,948.6
2023-04-30T07:44:43.657Z,948.6
2023-04-30T07:45:45.293Z,948.5
2023-04-30T07:46:47.026Z,948.6
2023-04-30T07:47:49.072Z,948.6
2023-04-30T07:48:50.750Z,948.6
2023-04-30T07:49:52.826Z,948.6
2023-04-30T07:50:55.274Z,948.6
2023-04-30T07:51:56.949Z,948.6
2023-04-30T07:52:58.581Z,948.6
2023-04-30T07:54:00.249Z,948.6
2023-04-30T07:55:01.886Z,948.6
2023-04-30T07:56:03.662Z,948.6
2023-04-30T07:57:05.307Z,948.6
2023-04-30T07:58:06.978Z,948.6
2023-04-30T07:59:08.635Z,948.6
2023-04-30T08:00:10.300Z,948.6
2023-04-30T08:01:11.935Z,948.6
2023-04-30T08:02:13.764Z,948.6
2023-04-30T08:03:16.002Z,948.6
2023-04-30T08:04:17.852Z,948.6
2023-04-30T08:05:19.602Z,948.6
2023-04-30T08:06:21.315Z,948.6
2023-04-30T08:07:23.075Z,948.6
2023-04-30T08:08:24.711Z,948.6
2023-04-30T08:09:26.360Z,948.6
2023-04-30T08:10:28.112Z,948.6
2023-04-30T08:11:29.753Z,948.6
2023-04-30T08:12:31.337Z,948.6
2023-04-30T08:13:33.003Z,948.6
2023-04-30T08:14:34.583Z,948.6
2023-04-30T08:15:36.223Z,948.6
2023-04-30T08:16:38.244Z,948.6
2023-04-30T08:17:40.237Z,948.6
2023-04-30T08:18:41.849Z,948.6
2023-04-30T08:19:43.453Z,948.6
2023-04-30T08:20:45.138Z,948.6
2023-04-30T08:21:46.748Z,948.6
2023-04-30T08:22:51.809Z,948.6
2023-04-30T08:23:53.421Z,948.6
2023-04-30T08:24:55.022Z,948.6
2023-04-30T08:25:56.639Z,948.6
2023-04-30T08:26:58.216Z,948.6
2023-04-30T08:27:59.841Z,948.6
2023-04-30T08:29:01.439Z,948.5
2023-04-30T08:30:03.039Z,948.5
2023-04-30T08:31:04.651Z,948.6
2023-04-30T08:32:06.610Z,948.6
2023-04-30T08:33:08.703Z,948.6
2023-04-30T08:34:13.600Z,948.6
2023-04-30T08:35:17.496Z,948.5
2023-04-30T08:36:19.101Z,948.6
2023-04-30T08:37:20.754Z,948.5
2023-04-30T08:38:22.461Z,948.6
2023-04-30T08:39:24.079Z,948.6
2023-04-30T08:40:52.250Z,948.6
2023-04-30T08:41:53.846Z,948.6
2023-04-30T08:42:55.465Z,948.6
2023-04-30T08:43:57.116Z,948.6
2023-04-30T08:44:58.714Z,948.6
2023-04-30T08:46:00.465Z,948.6
2023-04-30T08:47:02.218Z,948.6
2023-04-30T08:48:03.959Z,948.6
2023-04-30T08:49:05.701Z,948.6
2023-04-30T08:50:07.339Z,948.5
2023-04-30T08:51:09.540Z,948.6
2023-04-30T08:52:11.267Z,948.5
2023-04-30T08:53:12.931Z,948.6
2023-04-30T08:54:14.708Z,948.6
2023-04-30T08:55:19.381Z,948.6
2023-04-30T08:56:24.100Z,948.5
2023-04-30T08:57:27.236Z,948.5
2023-04-30T08:58:28.893Z,948.5
2023-04-30T08:59:30.519Z,948.5
2023-04-30T09:00:32.445Z,948.5
2023-04-30T09:01:34.261Z,948.5
2023-04-30T09:02:36.306Z,948.5
2023-04-30T09:03:38.507Z,948.5
2023-04-30T09:04:40.701Z,948.5
2023-04-30T09:05:42.403Z,948.5
2023-04-30T09:06:44.583Z,948.4
2023-04-30T09:08:04.597Z,948.4
2023-04-30T09:09:06.277Z,948.4
2023-04-30T09:10:07.997Z,948.4
2023-04-30T09:11:09.620Z,948.4
2023-04-30T09:12:11.222Z,948.4
2023-04-30T09:13:13.032Z,948.4
2023-04-30T09:14:14.631Z,948.4
2023-04-30T09:15:18.903Z,948.3
2023-04-30T09:16:20.657Z,948.4
2023-04-30T09:17:22.548Z,948.3
2023-04-30T09:18:24.327Z,948.3
2023-04-30T09:19:25.934Z,948.3
2023-04-30T09:20:27.782Z,948.3
2023-04-30T09:21:32.202Z,948.2
2023-04-30T09:22:33.923Z,948.2
2023-04-30T09:23:35.539Z,948.2
2023-04-30T09:24:37.208Z,948.2
2023-04-30T09:25:38.875Z,948.1
2023-04-30T09:26:41.551Z,948.1
2023-04-30T09:27:43.244Z,948.1
2023-04-30T09:28:44.856Z,948.1
2023-04-30T09:29:46.488Z,948.1
2023-04-30T09:30:48.104Z,948.1
2023-04-30T09:31:49.957Z,948
2023-04-30T09:32:52.263Z,948.1
2023-04-30T09:33:54.016Z,948
2023-04-30T09:34:55.660Z,948
2023-04-30T09:35:57.258Z,948
2023-04-30T09:36:58.829Z,948
2023-04-30T09:38:00.459Z,948
2023-04-30T09:39:02.074Z,948
2023-04-30T09:40:03.656Z,948
2023-04-30T09:41:05.275Z,948
2023-04-30T09:42:06.884Z,948
2023-04-30T09:43:08.511Z,947.9
2023-04-30T09:44:10.171Z,947.9
2023-04-30T09:45:11.751Z,947.9
2023-04-30T09:46:13.512Z,947.9
2023-04-30T09:47:15.137Z,947.9
2023-04-30T09:48:18.630Z,947.9
2023-04-30T09:49:20.415Z,947.9
2023-04-30T09:50:22.018Z,948
2023-04-30T09:51:23.650Z,947.9
2023-04-30T09:52:25.229Z,947.9
2023-04-30T09:53:26.881Z,947.9
2023-04-30T09:54:28.532Z,947.9
2023-04-30T09:55:30.161Z,947.9
2023-04-30T09:56:31.848Z,947.8
2023-04-30T09:57:33.418Z,947.9
2023-04-30T09:58:35.070Z,947.9
2023-04-30T09:59:36.940Z,947.9
2023-04-30T10:00:38.767Z,947.9
2023-04-30T10:01:41.653Z,947.9
2023-04-30T10:02:43.421Z,947.9
2023-04-30T10:03:45.160Z,947.9
2023-04-30T10:04:46.834Z,947.9
2023-04-30T10:05:48.462Z,947.9
2023-04-30T10:06:50.445Z,947.9
2023-04-30T10:07:52.245Z,947.8
2023-04-30T10:08:53.968Z,947.8
2023-04-30T10:09:56.875Z,947.8
2023-04-30T10:10:59.233Z,947.8
2023-04-30T10:12:00.853Z,947.8
2023-04-30T10:13:02.469Z,947.8
2023-04-30T10:14:04.066Z,947.8
2023-04-30T10:15:05.642Z,947.8
2023-04-30T10:16:07.330Z,947.8
2023-04-30T10:17:09.022Z,947.8
2023-04-30T10:18:10.862Z,947.7
2023-04-30T10:19:12.577Z,947.8
2023-04-30T10:20:14.402Z,947.8
2023-04-30T10:21:16.192Z,947.7
2023-04-30T10:22:17.787Z,947.7
2023-04-30T10:23:19.388Z,947.7
2023-04-30T10:24:21.109Z,947.7
2023-04-30T10:25:22.758Z,947.7
2023-04-30T10:26:24.491Z,947.7
2023-04-30T10:27:26.266Z,947.7
2023-04-30T10:28:27.925Z,947.7
2023-04-30T10:29:29.579Z,947.7
2023-04-30T10:30:31.206Z,947.7
2023-04-30T10:31:32.924Z,947.6
2023-04-30T10:32:34.742Z,947.7
2023-04-30T10:33:39.264Z,947.6
2023-04-30T10:34:40.869Z,947.6
2023-04-30T10:35:42.504Z,947.6
2023-04-30T10:36:44.362Z,947.7
2023-04-30T10:37:46.252Z,947.8
2023-04-30T10:38:48.911Z,947.9
2023-04-30T10:39:50.502Z,948
2023-04-30T10:40:52.183Z,948.1
2023-04-30T10:41:53.956Z,948.1
2023-04-30T10:42:55.696Z,948.1
2023-04-30T10:43:57.335Z,948.2
2023-04-30T10:45:00.043Z,948.2
2023-04-30T10:46:01.765Z,948.2
2023-04-30T10:47:03.456Z,948.3
2023-04-30T10:48:05.331Z,948.3
2023-04-30T10:49:07.069Z,948.3
2023-04-30T10:50:08.795Z,948.3
2023-04-30T10:51:10.450Z,948.3
2023-04-30T10:52:12.049Z,948.3
2023-04-30T10:53:13.733Z,948.3
2023-04-30T10:54:15.324Z,948.3
2023-04-30T10:55:16.947Z,948.3
2023-04-30T10:56:18.656Z,948.3
2023-04-30T10:57:20.421Z,948.2
2023-04-30T10:58:22.126Z,948.2
2023-04-30T10:59:23.712Z,948.2
2023-04-30T11:00:25.313Z,948.2
2023-04-30T11:01:27.044Z,948.2
2023-04-30T11:02:28.940Z,948.2
2023-04-30T11:03:30.635Z,948.2
2023-04-30T11:04:32.386Z,948.2
2023-04-30T11:05:34.060Z,948.2
2023-04-30T11:06:35.837Z,948.2
2023-04-30T11:07:37.578Z,948.1
2023-04-30T11:08:39.287Z,948.1
2023-04-30T11:09:40.906Z,948.1
2023-04-30T11:10:42.688Z,948.1
2023-04-30T11:11:44.378Z,948.1
2023-04-30T11:12:46.082Z,948.1
2023-04-30T11:13:47.750Z,948.1
2023-04-30T11:14:49.398Z,948.1
2023-04-30T11:15:51.158Z,948.1
2023-04-30T11:16:52.908Z,948
2023-04-30T11:17:54.711Z,948.1
2023-04-30T11:18:56.412Z,948
2023-04-30T11:19:58.169Z,948
2023-04-30T11:20:59.757Z,948
2023-04-30T11:22:01.390Z,948
2023-04-30T11:23:02.982Z,948
2023-04-30T11:24:04.717Z,948
2023-04-30T11:25:06.374Z,948
2023-04-30T11:26:08.079Z,948
2023-04-30T11:27:09.754Z,948
2023-04-30T11:28:11.369Z,948
2023-04-30T11:29:13.447Z,947.9
2023-04-30T11:30:15.803Z,947.9
2023-04-30T11:31:17.531Z,947.9
2023-04-30T11:32:19.421Z,947.9
2023-04-30T11:33:21.095Z,947.9
2023-04-30T11:34:22.703Z,947.9
2023-04-30T11:35:24.350Z,948
2023-04-30T11:36:25.980Z,948
2023-04-30T11:37:27.695Z,948
2023-04-30T11:38:29.333Z,948
2023-04-30T11:39:30.955Z,948
2023-04-30T11:40:32.654Z,948
2023-04-30T11:41:34.256Z,948
2023-04-30T11:42:36.015Z,948
2023-04-30T11:43:37.638Z,948
2023-04-30T11:44:39.336Z,948
2023-04-30T11:45:40.943Z,948
2023-04-30T11:46:42.849Z,948
2023-04-30T11:47:44.721Z,948
2023-04-30T11:48:46.393Z,948
2023-04-30T11:49:48.098Z,948
2023-04-30T11:50:49.698Z,948
2023-04-30T11:51:51.270Z,948
2023-04-30T11:52:52.945Z,948
2023-04-30T11:53:54.562Z,948
2023-04-30T11:54:56.229Z,948
2023-04-30T11:55:57.832Z,948
2023-04-30T11:56:59.460Z,948
2023-04-30T11:58:01.036Z,948.1
2023-04-30T11:59:02.695Z,948.1
2023-04-30T12:00:04.355Z,948.1
2023-04-30T12:01:06.025Z,948.1
2023-04-30T12:02:08.030Z,948.1
2023-04-30T12:03:10.029Z,948
2023-04-30T12:04:12.594Z,948.1
2023-04-30T12:05:14.527Z,948
2023-04-30T12:06:16.337Z,948.1
2023-04-30T12:07:18.021Z,948.1
2023-04-30T12:08:19.675Z,948.1
2023-04-30T12:09:21.298Z,948
2023-04-30T12:10:22.874Z,948
2023-04-30T12:11:24.554Z,948
2023-04-30T12:12:26.204Z,948
2023-04-30T12:13:27.862Z,948
2023-04-30T12:14:29.452Z,948
2023-04-30T12:15:31.131Z,947.9
2023-04-30T12:16:32.887Z,948
2023-04-30T12:17:34.815Z,948.1
2023-04-30T12:18:36.765Z,948.1
2023-04-30T12:19:38.358Z,948
2023-04-30T12:20:39.987Z,948
2023-04-30T12:21:41.624Z,948
2023-04-30T12:22:43.197Z,948
2023-04-30T12:23:44.864Z,948
2023-04-30T12:24:46.443Z,948
2023-04-30T12:25:48.093Z,948
2023-04-30T12:26:49.813Z,948
2023-04-30T12:27:51.447Z,948
2023-04-30T12:28:53.266Z,948.1
2023-04-30T12:29:55.928Z,948.1
2023-04-30T12:30:58.443Z,948.1
2023-04-30T12:32:00.431Z,948.2
2023-04-30T12:33:02.385Z,948.2
2023-04-30T12:34:04.100Z,948.2
2023-04-30T12:35:05.690Z,948.2
2023-04-30T12:36:07.386Z,948.3
2023-04-30T12:37:08.980Z,948.3
2023-04-30T12:38:10.605Z,948.3
2023-04-30T12:39:12.239Z,948.3
2023-04-30T12:40:13.862Z,948.2
2023-04-30T12:41:15.715Z,948.2
2023-04-30T12:42:17.286Z,948.2
2023-04-30T12:43:18.923Z,948.2
2023-04-30T12:44:20.515Z,948.2
2023-04-30T12:45:22.300Z,948.2
2023-04-30T12:46:24.282Z,948.2
2023-04-30T12:47:26.167Z,948.1
2023-04-30T12:48:27.882Z,948.1
2023-04-30T12:49:29.741Z,948.1
2023-04-30T12:50:31.502Z,948.1
2023-04-30T12:51:33.324Z,948.1
2023-04-30T12:52:35.210Z,948.1
2023-04-30T12:53:36.892Z,948.1
2023-04-30T12:54:38.688Z,948.1
2023-04-30T12:55:43.251Z,948.2
2023-04-30T12:56:45.226Z,948.1
2023-04-30T12:57:47.106Z,948.2
2023-04-30T12:58:48.702Z,948.1
2023-04-30T12:59:50.401Z,948.1
2023-04-30T13:00:52.011Z,948.1
2023-04-30T13:01:54.089Z,948.2
2023-04-30T13:02:56.077Z,948.2
2023-04-30T13:03:58.494Z,948.2
2023-04-30T13:05:00.653Z,948.1
2023-04-30T13:06:02.442Z,948.1
2023-04-30T13:07:04.183Z,948.1
2023-04-30T13:08:05.782Z,948.1
2023-04-30T13:09:07.391Z,948.1
2023-04-30T13:10:09.038Z,948.1
2023-04-30T13:11:11.942Z,948.1
2023-04-30T13:12:13.686Z,948.1
2023-04-30T13:13:15.460Z,948.1
2023-04-30T13:14:17.287Z,948
2023-04-30T13:15:19.240Z,948
2023-04-30T13:16:21.206Z,948.1
2023-04-30T13:17:23.282Z,948
2023-04-30T13:18:25.206Z,948
2023-04-30T13:19:27.047Z,948
2023-04-30T13:20:28.645Z,947.9
2023-04-30T13:21:30.277Z,947.9